Time,TemperatureF,DewpointF,PressureIn,WindDirection,WindDirectionDegrees,WindSpeedMPH,WindSpeedGustMPH,Humidity,HourlyPrecipIn,Conditions,Clouds,dailyrainin,SoftwareType,DateUTC
2013-01-17 00:10:00,34.0,33.0,29.83,SSW,202,1.0,4.0,94,0.00,,,0.00,weatherlink.com 1.10,2013-01-17 05:10:00,
2013-01-17 00:25:00,34.1,32.0,29.84,SW,231,5.0,5.0,93,0.00,,,0.00,weatherlink.com 1.10,2013-01-17 05:25:00,
2013-01-17 00:40:00,34.2,32.0,29.84,WNW,285,1.0,7.0,93,0.00,,,0.00,weatherlink.com 1.10,2013-01-17 05:40:00,
2013-01-17 00:55:00,34.2,32.0,29.85,SW,219,2.0,8.0,93,0.00,,,0.00,weatherlink.com 1.10,2013-01-17 05:55:00,
2013-01-17 01:11:00,34.2,32.0,29.85,West,266,3.0,5.0,93,0.00,,,0.00,weatherlink.com 1.10,2013-01-17 06:11:00,
2013-01-17 01:25:00,34.2,32.0,29.86,SSW,195,1.0,7.0,93,0.01,,,0.01,weatherlink.com 1.10,2013-01-17 06:25:00,
2013-01-17 01:40:00,34.2,32.0,29.86,NNW,344,1.0,4.0,93,0.01,,,0.01,weatherlink.com 1.10,2013-01-17 06:40:00,
2013-01-17 01:55:00,34.1,32.0,29.86,SSW,210,2.0,6.0,93,0.01,,,0.01,weatherlink.com 1.10,2013-01-17 06:55:00,
2013-01-17 02:10:00,33.7,32.0,29.86,SW,224,2.0,3.0,93,0.01,,,0.01,weatherlink.com 1.10,2013-01-17 07:10:00,
2013-01-17 02:25:00,33.5,32.0,29.86,South,177,2.0,3.0,94,0.00,,,0.01,weatherlink.com 1.10,2013-01-17 07:25:00,
2013-01-17 02:40:00,33.3,32.0,29.86,West,281,2.0,3.0,94,0.00,,,0.01,weatherlink.com 1.10,2013-01-17 07:40:00,
2013-01-17 02:55:00,33.1,32.0,29.86,West,280,1.0,2.0,94,0.00,,,0.01,weatherlink.com 1.10,2013-01-17 07:55:00,
2013-01-17 03:10:00,33.0,32.0,29.85,WNW,287,3.0,3.0,94,0.00,,,0.01,weatherlink.com 1.10,2013-01-17 08:10:00,
2013-01-17 03:25:00,32.8,32.0,29.85,West,273,1.0,3.0,95,0.00,,,0.01,weatherlink.com 1.10,2013-01-17 08:25:00,
2013-01-17 03:40:00,32.6,31.0,29.85,WNW,295,2.0,3.0,94,0.00,,,0.01,weatherlink.com 1.10,2013-01-17 08:40:00,
2013-01-17 03:56:00,32.5,31.0,29.85,WNW,285,1.0,3.0,94,0.00,,,0.01,weatherlink.com 1.10,2013-01-17 08:56:00,
2013-01-17 04:10:00,32.4,31.0,29.85,West,278,1.0,4.0,94,0.00,,,0.01,weatherlink.com 1.10,2013-01-17 09:10:00,
2013-01-17 04:25:00,32.4,31.0,29.85,West,266,2.0,3.0,94,0.00,,,0.01,weatherlink.com 1.10,2013-01-17 09:25:00,
2013-01-17 04:40:00,32.4,31.0,29.85,West,259,1.0,3.0,94,0.00,,,0.01,weatherlink.com 1.10,2013-01-17 09:40:00,
2013-01-17 04:55:00,32.5,31.0,29.84,SSW,212,3.0,6.0,94,0.00,,,0.01,weatherlink.com 1.10,2013-01-17 09:55:00,
2013-01-17 05:10:00,32.6,31.0,29.84,SW,224,1.0,4.0,94,0.00,,,0.01,weatherlink.com 1.10,2013-01-17 10:10:00,
2013-01-17 05:25:00,32.6,31.0,29.85,WSW,245,3.0,4.0,93,0.00,,,0.01,weatherlink.com 1.10,2013-01-17 10:25:00,
2013-01-17 05:40:00,32.6,31.0,29.86,WSW,250,2.0,4.0,92,0.00,,,0.01,weatherlink.com 1.10,2013-01-17 10:40:00,
2013-01-17 05:55:00,32.4,30.0,29.87,West,269,1.0,4.0,92,0.00,,,0.01,weatherlink.com 1.10,2013-01-17 10:55:00,
2013-01-17 06:10:00,32.3,30.0,29.87,WSW,239,1.0,3.0,92,0.00,,,0.01,weatherlink.com 1.10,2013-01-17 11:10:00,
2013-01-17 06:25:00,32.4,30.0,29.86,West,260,1.0,3.0,92,0.00,,,0.01,weatherlink.com 1.10,2013-01-17 11:25:00,
2013-01-17 06:40:00,32.4,30.0,29.88,West,277,1.0,3.0,91,0.00,,,0.01,weatherlink.com 1.10,2013-01-17 11:40:00,
2013-01-17 06:55:00,32.3,30.0,29.89,WSW,253,0.0,4.0,91,0.00,,,0.01,weatherlink.com 1.10,2013-01-17 11:55:00,
2013-01-17 07:26:00,32.3,30.0,29.91,West,271,3.0,4.0,90,0.00,,,0.01,weatherlink.com 1.10,2013-01-17 12:26:00,
2013-01-17 07:41:00,32.4,30.0,29.91,West,275,4.0,5.0,90,0.00,,,0.01,weatherlink.com 1.10,2013-01-17 12:41:00,
2013-01-17 07:56:00,32.6,30.0,29.92,West,268,3.0,7.0,89,0.00,,,0.01,weatherlink.com 1.10,2013-01-17 12:56:00,
2013-01-17 08:11:00,32.9,30.0,29.92,WNW,288,4.0,6.0,88,0.00,,,0.01,weatherlink.com 1.10,2013-01-17 13:11:00,
2013-01-17 08:26:00,33.7,30.0,29.94,WNW,284,2.0,5.0,86,0.00,,,0.01,weatherlink.com 1.10,2013-01-17 13:26:00,
2013-01-17 08:41:00,34.5,30.0,29.94,WNW,295,2.0,5.0,84,0.00,,,0.01,weatherlink.com 1.10,2013-01-17 13:41:00,
2013-01-17 08:56:00,35.2,30.0,29.94,West,267,2.0,7.0,82,0.00,,,0.01,weatherlink.com 1.10,2013-01-17 13:56:00,
2013-01-17 09:11:00,35.8,30.0,29.95,West,277,2.0,6.0,80,0.00,,,0.01,weatherlink.com 1.10,2013-01-17 14:11:00,
2013-01-17 09:26:00,35.7,30.0,29.96,West,276,1.0,4.0,81,0.00,,,0.01,weatherlink.com 1.10,2013-01-17 14:26:00,
2013-01-17 09:41:00,36.4,31.0,29.96,WSW,240,3.0,4.0,80,0.01,,,0.02,weatherlink.com 1.10,2013-01-17 14:41:00,
2013-01-17 09:56:00,37.1,31.0,29.96,WNW,285,1.0,5.0,78,0.01,,,0.02,weatherlink.com 1.10,2013-01-17 14:56:00,
2013-01-17 10:11:00,37.3,31.0,29.96,ENE,71,3.0,9.0,78,0.01,,,0.02,weatherlink.com 1.10,2013-01-17 15:11:00,
2013-01-17 10:26:00,38.0,31.0,29.96,WNW,284,3.0,6.0,77,0.02,,,0.03,weatherlink.com 1.10,2013-01-17 15:26:00,
2013-01-17 10:41:00,38.7,32.0,29.95,West,271,4.0,8.0,76,0.02,,,0.04,weatherlink.com 1.10,2013-01-17 15:41:00,
2013-01-17 10:56:00,39.3,32.0,29.96,West,277,1.0,6.0,76,0.05,,,0.07,weatherlink.com 1.10,2013-01-17 15:56:00,
2013-01-17 11:11:00,39.5,32.0,29.95,West,280,4.0,9.0,73,0.07,,,0.09,weatherlink.com 1.10,2013-01-17 16:11:00,
2013-01-17 11:26:00,39.6,32.0,29.95,West,273,5.0,11.0,73,0.08,,,0.11,weatherlink.com 1.10,2013-01-17 16:26:00,
2013-01-17 11:41:00,39.4,31.0,29.94,West,271,8.0,9.0,73,0.09,,,0.13,weatherlink.com 1.10,2013-01-17 16:41:00,
2013-01-17 11:56:00,39.7,31.0,29.95,NW,319,1.0,11.0,72,0.08,,,0.15,weatherlink.com 1.10,2013-01-17 16:56:00,
2013-01-17 12:11:00,40.1,32.0,29.95,West,267,10.0,20.0,72,0.08,,,0.17,weatherlink.com 1.10,2013-01-17 17:11:00,
2013-01-17 12:26:00,40.9,33.0,29.95,West,267,7.0,12.0,72,0.09,,,0.20,weatherlink.com 1.10,2013-01-17 17:26:00,
2013-01-17 12:41:00,41.5,31.0,29.95,West,260,7.0,12.0,67,0.09,,,0.22,weatherlink.com 1.10,2013-01-17 17:41:00,
2013-01-17 12:56:00,41.8,32.0,29.95,NNW,338,4.0,9.0,67,0.09,,,0.24,weatherlink.com 1.10,2013-01-17 17:56:00,
2013-01-17 13:11:00,41.6,31.0,29.94,WNW,297,3.0,9.0,67,0.09,,,0.26,weatherlink.com 1.10,2013-01-17 18:11:00,
2013-01-17 13:26:00,41.5,31.0,29.96,West,269,3.0,10.0,67,0.07,,,0.27,weatherlink.com 1.10,2013-01-17 18:26:00,
2013-01-17 13:41:00,41.7,31.0,29.96,WSW,242,4.0,8.0,67,0.06,,,0.28,weatherlink.com 1.10,2013-01-17 18:41:00,
2013-01-17 13:56:00,42.2,30.0,29.97,WSW,243,2.0,8.0,62,0.05,,,0.29,weatherlink.com 1.10,2013-01-17 18:56:00,
2013-01-17 14:11:00,41.9,29.0,29.97,West,281,3.0,12.0,60,0.03,,,0.29,weatherlink.com 1.10,2013-01-17 19:11:00,
2013-01-17 14:26:00,42.2,28.0,29.98,West,275,3.0,8.0,58,0.03,,,0.30,weatherlink.com 1.10,2013-01-17 19:26:00,
2013-01-17 14:42:00,42.2,27.0,29.99,WNW,297,4.0,11.0,56,0.02,,,0.30,weatherlink.com 1.10,2013-01-17 19:42:00,
2013-01-17 14:57:00,42.4,27.0,29.99,SW,225,3.0,11.0,55,0.01,,,0.30,weatherlink.com 1.10,2013-01-17 19:57:00,
2013-01-17 15:12:00,42.5,27.0,30.00,WNW,303,8.0,9.0,54,0.01,,,0.30,weatherlink.com 1.10,2013-01-17 20:12:00,
2013-01-17 15:27:00,42.0,27.0,30.00,West,278,1.0,8.0,55,0.00,,,0.30,weatherlink.com 1.10,2013-01-17 20:27:00,
2013-01-17 15:42:00,41.5,27.0,30.00,West,268,3.0,10.0,56,0.00,,,0.30,weatherlink.com 1.10,2013-01-17 20:42:00,
2013-01-17 15:57:00,41.2,26.0,30.00,NW,323,3.0,9.0,56,0.01,,,0.31,weatherlink.com 1.10,2013-01-17 20:57:00,
2013-01-17 16:12:00,40.8,26.0,30.00,WNW,282,3.0,8.0,56,0.01,,,0.31,weatherlink.com 1.10,2013-01-17 21:12:00,
2013-01-17 16:42:00,40.0,27.0,30.01,WNW,295,2.0,6.0,60,0.01,,,0.31,weatherlink.com 1.10,2013-01-17 21:42:00,
2013-01-17 16:57:00,39.8,26.0,30.03,ENE,68,2.0,7.0,58,0.00,,,0.31,weatherlink.com 1.10,2013-01-17 21:57:00,
2013-01-17 17:12:00,38.7,29.0,30.03,North,353,2.0,4.0,67,0.00,,,0.31,weatherlink.com 1.10,2013-01-17 22:12:00,
2013-01-17 17:27:00,38.2,29.0,30.04,NE,41,3.0,3.0,69,0.00,,,0.31,weatherlink.com 1.10,2013-01-17 22:27:00,
2013-01-17 17:42:00,38.0,29.0,30.05,NNW,329,1.0,3.0,69,0.00,,,0.31,weatherlink.com 1.10,2013-01-17 22:42:00,
2013-01-17 17:57:00,37.7,29.0,30.04,WNW,303,1.0,3.0,70,0.00,,,0.31,weatherlink.com 1.10,2013-01-17 22:57:00,
2013-01-17 18:12:00,37.6,28.0,30.05,West,281,2.0,4.0,68,0.00,,,0.31,weatherlink.com 1.10,2013-01-17 23:12:00,
2013-01-17 18:27:00,37.5,27.0,30.06,NW,318,2.0,6.0,66,0.00,,,0.31,weatherlink.com 1.10,2013-01-17 23:27:00,
2013-01-17 18:42:00,37.1,26.0,30.08,NNE,22,1.0,4.0,65,0.00,,,0.31,weatherlink.com 1.10,2013-01-17 23:42:00,
2013-01-17 18:57:00,36.5,25.0,30.07,NNE,30,2.0,5.0,64,0.00,,,0.31,weatherlink.com 1.10,2013-01-17 23:57:00,
2013-01-17 19:12:00,36.0,24.0,30.06,NE,47,1.0,4.0,63,0.00,,,0.31,weatherlink.com 1.10,2013-01-18 00:12:00,
2013-01-17 19:27:00,35.5,24.0,30.08,North,7,3.0,5.0,62,0.00,,,0.31,weatherlink.com 1.10,2013-01-18 00:27:00,
2013-01-17 19:42:00,34.9,22.0,30.08,North,9,4.0,6.0,60,0.00,,,0.31,weatherlink.com 1.10,2013-01-18 00:42:00,
2013-01-17 19:57:00,34.5,22.0,30.08,NNE,19,1.0,5.0,60,0.00,,,0.31,weatherlink.com 1.10,2013-01-18 00:57:00,
2013-01-17 20:12:00,34.3,22.0,30.08,North,11,0.0,3.0,61,0.00,,,0.31,weatherlink.com 1.10,2013-01-18 01:12:00,
2013-01-17 20:27:00,33.8,21.0,30.07,NNE,31,3.0,4.0,60,0.00,,,0.31,weatherlink.com 1.10,2013-01-18 01:27:00,
2013-01-17 20:42:00,33.5,21.0,30.07,NNW,336,3.0,5.0,60,0.00,,,0.31,weatherlink.com 1.10,2013-01-18 01:42:00,
2013-01-17 20:57:00,33.0,20.0,30.07,NNW,332,0.0,5.0,59,0.00,,,0.31,weatherlink.com 1.10,2013-01-18 01:57:00,
2013-01-17 21:12:00,32.7,20.0,30.07,NW,312,1.0,5.0,59,0.00,,,0.31,weatherlink.com 1.10,2013-01-18 02:12:00,
2013-01-17 21:27:00,32.3,19.0,30.08,North,355,2.0,5.0,58,0.00,,,0.31,weatherlink.com 1.10,2013-01-18 02:27:00,
2013-01-17 21:57:00,31.8,18.0,30.07,NNE,29,0.0,6.0,57,0.00,,,0.31,weatherlink.com 1.10,2013-01-18 02:57:00,
2013-01-17 22:12:00,31.6,18.0,30.06,North,7,1.0,3.0,58,0.00,,,0.31,weatherlink.com 1.10,2013-01-18 03:12:00,
2013-01-17 22:27:00,31.4,17.0,30.08,North,349,2.0,4.0,56,0.00,,,0.31,weatherlink.com 1.10,2013-01-18 03:27:00,
2013-01-17 22:42:00,31.4,18.0,30.08,North,356,2.0,4.0,57,0.00,,,0.31,weatherlink.com 1.10,2013-01-18 03:42:00,
2013-01-17 22:57:00,31.2,17.0,30.07,NNW,329,0.0,4.0,57,0.00,,,0.31,weatherlink.com 1.10,2013-01-18 03:57:00,
2013-01-17 23:12:00,31.0,18.0,30.06,North,353,2.0,3.0,58,0.00,,,0.31,weatherlink.com 1.10,2013-01-18 04:12:00,
2013-01-17 23:27:00,30.7,17.0,30.04,NE,36,4.0,4.0,57,0.00,,,0.31,weatherlink.com 1.10,2013-01-18 04:27:00,
2013-01-17 23:42:00,30.3,16.0,30.05,NNW,340,2.0,7.0,55,0.00,,,0.31,weatherlink.com 1.10,2013-01-18 04:42:00,
2013-01-17 23:57:00,30.0,15.0,30.07,NW,316,2.0,5.0,53,0.00,,,0.00,weatherlink.com 1.10,2013-01-18 04:57:00,